Авиационная погода в Ханты-Мансийске

Регион: 
Погода METAR: 
USHH 241400Z 00000MPS CAVOK M01/M05 Q1008 R24/010060 NOSIG
Время наблюдения
2021-10-24T14:00:00Z
Температура C
-1.0
Точка росы
-5.0
Направление ветра
0
Скорость ветра (узлы)
0
Метео видимость
6.21
Явления погоды
Условия полета
VFR
Аэропорт подробнее: